sensor_id;sensor_type;location;lat;lon;timestamp;P1;durP1;ratioP1;P2;durP2;ratioP2
40471;SDS011;26174;42.908;23.800;2023-03-11T00:00:33;0.38;;;0.38;;
40471;SDS011;26174;42.908;23.800;2023-03-11T00:03:01;0.32;;;0.32;;
40471;SDS011;26174;42.908;23.800;2023-03-11T00:05:29;1.77;;;0.85;;
40471;SDS011;26174;42.908;23.800;2023-03-11T00:07:56;1.35;;;1.17;;
40471;SDS011;26174;42.908;23.800;2023-03-11T00:10:23;1.40;;;1.15;;
40471;SDS011;26174;42.908;23.800;2023-03-11T00:12:50;0.75;;;0.65;;
40471;SDS011;26174;42.908;23.800;2023-03-11T00:15:16;0.98;;;0.80;;
40471;SDS011;26174;42.908;23.800;2023-03-11T00:17:46;0.85;;;0.65;;
40471;SDS011;26174;42.908;23.800;2023-03-11T00:20:25;1.00;;;0.63;;
40471;SDS011;26174;42.908;23.800;2023-03-11T00:22:53;1.73;;;0.95;;
40471;SDS011;26174;42.908;23.800;2023-03-11T00:25:19;0.38;;;0.30;;
40471;SDS011;26174;42.908;23.800;2023-03-11T00:27:45;0.40;;;0.35;;
40471;SDS011;26174;42.908;23.800;2023-03-11T00:30:13;0.75;;;0.43;;
40471;SDS011;26174;42.908;23.800;2023-03-11T00:32:39;0.85;;;0.68;;
40471;SDS011;26174;42.908;23.800;2023-03-11T00:35:05;0.65;;;0.65;;
40471;SDS011;26174;42.908;23.800;2023-03-11T00:37:31;2.08;;;0.95;;
40471;SDS011;26174;42.908;23.800;2023-03-11T00:39:57;0.20;;;0.20;;
40471;SDS011;26174;42.908;23.800;2023-03-11T00:42:23;1.35;;;0.63;;
40471;SDS011;26174;42.908;23.800;2023-03-11T00:44:49;6.45;;;0.63;;
40471;SDS011;26174;42.908;23.800;2023-03-11T00:47:14;0.55;;;0.55;;
40471;SDS011;26174;42.908;23.800;2023-03-11T00:49:40;0.20;;;0.20;;
40471;SDS011;26174;42.908;23.800;2023-03-11T00:52:05;0.90;;;0.43;;
40471;SDS011;26174;42.908;23.800;2023-03-11T00:54:31;0.80;;;0.52;;
40471;SDS011;26174;42.908;23.800;2023-03-11T00:56:56;0.70;;;0.63;;
40471;SDS011;26174;42.908;23.800;2023-03-11T00:59:22;0.30;;;0.30;;
40471;SDS011;26174;42.908;23.800;2023-03-11T01:01:48;0.85;;;0.20;;
40471;SDS011;26174;42.908;23.800;2023-03-11T01:04:13;0.68;;;0.55;;
40471;SDS011;26174;42.908;23.800;2023-03-11T01:06:39;1.17;;;0.82;;
40471;SDS011;26174;42.908;23.800;2023-03-11T01:09:07;0.75;;;0.22;;
40471;SDS011;26174;42.908;23.800;2023-03-11T01:11:33;0.00;;;0.00;;
40471;SDS011;26174;42.908;23.800;2023-03-11T01:13:58;0.00;;;0.00;;
40471;SDS011;26174;42.908;23.800;2023-03-11T01:16:24;0.32;;;0.30;;
40471;SDS011;26174;42.908;23.800;2023-03-11T01:18:50;0.20;;;0.20;;
40471;SDS011;26174;42.908;23.800;2023-03-11T01:21:15;2.83;;;0.82;;
40471;SDS011;26174;42.908;23.800;2023-03-11T01:23:41;0.32;;;0.32;;
40471;SDS011;26174;42.908;23.800;2023-03-11T01:26:07;0.17;;;0.17;;
40471;SDS011;26174;42.908;23.800;2023-03-11T01:28:32;0.20;;;0.20;;
40471;SDS011;26174;42.908;23.800;2023-03-11T01:30:58;0.30;;;0.30;;
40471;SDS011;26174;42.908;23.800;2023-03-11T01:33:24;0.17;;;0.17;;
40471;SDS011;26174;42.908;23.800;2023-03-11T01:35:49;0.20;;;0.13;;
40471;SDS011;26174;42.908;23.800;2023-03-11T01:38:15;0.10;;;0.10;;
40471;SDS011;26174;42.908;23.800;2023-03-11T01:40:42;0.55;;;0.55;;
40471;SDS011;26174;42.908;23.800;2023-03-11T01:48:52;0.57;;;0.55;;
40471;SDS011;26174;42.908;23.800;2023-03-11T01:51:39;0.45;;;0.40;;
40471;SDS011;26174;42.908;23.800;2023-03-11T01:54:07;1.02;;;0.57;;
40471;SDS011;26174;42.908;23.800;2023-03-11T01:56:38;0.40;;;0.40;;
40471;SDS011;26174;42.908;23.800;2023-03-11T01:59:06;1.33;;;0.45;;
40471;SDS011;26174;42.908;23.800;2023-03-11T02:01:32;0.25;;;0.25;;
40471;SDS011;26174;42.908;23.800;2023-03-11T02:03:58;0.30;;;0.30;;
40471;SDS011;26174;42.908;23.800;2023-03-11T02:06:24;0.10;;;0.10;;
40471;SDS011;26174;42.908;23.800;2023-03-11T02:08:50;2.92;;;0.77;;
40471;SDS011;26174;42.908;23.800;2023-03-11T02:11:18;0.73;;;0.35;;
40471;SDS011;26174;42.908;23.800;2023-03-11T02:13:46;0.40;;;0.40;;
40471;SDS011;26174;42.908;23.800;2023-03-11T02:16:18;0.47;;;0.47;;
40471;SDS011;26174;42.908;23.800;2023-03-11T02:18:44;1.15;;;0.38;;
40471;SDS011;26174;42.908;23.800;2023-03-11T02:21:14;0.10;;;0.10;;
40471;SDS011;26174;42.908;23.800;2023-03-11T02:29:32;0.10;;;0.10;;
40471;SDS011;26174;42.908;23.800;2023-03-11T02:32:00;0.20;;;0.20;;
40471;SDS011;26174;42.908;23.800;2023-03-11T02:34:28;0.15;;;0.15;;
40471;SDS011;26174;42.908;23.800;2023-03-11T02:36:56;0.00;;;0.00;;
40471;SDS011;26174;42.908;23.800;2023-03-11T02:39:30;0.13;;;0.13;;
40471;SDS011;26174;42.908;23.800;2023-03-11T02:41:57;0.47;;;0.47;;
40471;SDS011;26174;42.908;23.800;2023-03-11T02:44:23;0.10;;;0.10;;
40471;SDS011;26174;42.908;23.800;2023-03-11T02:46:48;0.30;;;0.30;;
40471;SDS011;26174;42.908;23.800;2023-03-11T02:49:15;0.10;;;0.10;;
40471;SDS011;26174;42.908;23.800;2023-03-11T02:51:41;2.45;;;0.90;;
40471;SDS011;26174;42.908;23.800;2023-03-11T02:54:06;0.00;;;0.00;;
40471;SDS011;26174;42.908;23.800;2023-03-11T02:56:32;0.00;;;0.00;;
40471;SDS011;26174;42.908;23.800;2023-03-11T02:58:57;0.20;;;0.20;;
40471;SDS011;26174;42.908;23.800;2023-03-11T03:01:23;0.77;;;0.52;;
40471;SDS011;26174;42.908;23.800;2023-03-11T03:03:48;0.00;;;0.00;;
40471;SDS011;26174;42.908;23.800;2023-03-11T03:06:14;0.20;;;0.20;;
40471;SDS011;26174;42.908;23.800;2023-03-11T03:08:39;0.20;;;0.20;;
40471;SDS011;26174;42.908;23.800;2023-03-11T03:11:05;0.65;;;0.65;;
40471;SDS011;26174;42.908;23.800;2023-03-11T03:13:31;0.32;;;0.10;;
40471;SDS011;26174;42.908;23.800;2023-03-11T03:15:56;0.00;;;0.00;;
40471;SDS011;26174;42.908;23.800;2023-03-11T03:18:22;0.00;;;0.00;;
40471;SDS011;26174;42.908;23.800;2023-03-11T03:20:49;0.00;;;0.00;;
40471;SDS011;26174;42.908;23.800;2023-03-11T03:23:15;0.43;;;0.20;;
40471;SDS011;26174;42.908;23.800;2023-03-11T03:25:41;5.25;;;0.68;;
40471;SDS011;26174;42.908;23.800;2023-03-11T03:28:07;0.10;;;0.10;;
40471;SDS011;26174;42.908;23.800;2023-03-11T03:30:33;0.08;;;0.08;;
40471;SDS011;26174;42.908;23.800;2023-03-11T03:32:59;0.10;;;0.10;;
40471;SDS011;26174;42.908;23.800;2023-03-11T03:35:25;0.47;;;0.20;;
40471;SDS011;26174;42.908;23.800;2023-03-11T03:37:50;0.17;;;0.17;;
40471;SDS011;26174;42.908;23.800;2023-03-11T03:40:16;0.00;;;0.00;;
40471;SDS011;26174;42.908;23.800;2023-03-11T03:42:42;0.47;;;0.10;;
40471;SDS011;26174;42.908;23.800;2023-03-11T03:45:07;0.00;;;0.00;;
40471;SDS011;26174;42.908;23.800;2023-03-11T03:47:34;0.45;;;0.45;;
40471;SDS011;26174;42.908;23.800;2023-03-11T03:50:01;0.20;;;0.20;;
40471;SDS011;26174;42.908;23.800;2023-03-11T03:52:27;0.15;;;0.15;;
40471;SDS011;26174;42.908;23.800;2023-03-11T03:54:53;0.45;;;0.45;;
40471;SDS011;26174;42.908;23.800;2023-03-11T03:57:18;0.00;;;0.00;;
40471;SDS011;26174;42.908;23.800;2023-03-11T03:59:44;0.52;;;0.47;;
40471;SDS011;26174;42.908;23.800;2023-03-11T04:02:09;1.08;;;0.28;;
40471;SDS011;26174;42.908;23.800;2023-03-11T04:04:35;0.50;;;0.40;;
40471;SDS011;26174;42.908;23.800;2023-03-11T04:07:02;2.17;;;1.00;;
40471;SDS011;26174;42.908;23.800;2023-03-11T04:09:29;0.20;;;0.20;;
40471;SDS011;26174;42.908;23.800;2023-03-11T04:11:55;0.20;;;0.20;;
40471;SDS011;26174;42.908;23.800;2023-03-11T04:14:21;0.08;;;0.08;;
40471;SDS011;26174;42.908;23.800;2023-03-11T04:16:46;0.90;;;0.20;;
40471;SDS011;26174;42.908;23.800;2023-03-11T04:19:12;0.03;;;0.03;;
40471;SDS011;26174;42.908;23.800;2023-03-11T04:21:37;0.38;;;0.38;;
40471;SDS011;26174;42.908;23.800;2023-03-11T04:24:03;0.40;;;0.40;;
40471;SDS011;26174;42.908;23.800;2023-03-11T04:26:28;0.47;;;0.45;;
40471;SDS011;26174;42.908;23.800;2023-03-11T04:28:54;0.10;;;0.10;;
40471;SDS011;26174;42.908;23.800;2023-03-11T04:31:20;0.13;;;0.13;;
40471;SDS011;26174;42.908;23.800;2023-03-11T04:33:45;0.15;;;0.10;;
40471;SDS011;26174;42.908;23.800;2023-03-11T04:36:11;0.38;;;0.38;;
40471;SDS011;26174;42.908;23.800;2023-03-11T04:38:37;0.13;;;0.13;;
40471;SDS011;26174;42.908;23.800;2023-03-11T04:41:04;0.95;;;0.25;;
40471;SDS011;26174;42.908;23.800;2023-03-11T04:43:30;0.55;;;0.28;;
40471;SDS011;26174;42.908;23.800;2023-03-11T04:45:56;21.35;;;0.93;;
40471;SDS011;26174;42.908;23.800;2023-03-11T04:48:22;0.40;;;0.30;;
40471;SDS011;26174;42.908;23.800;2023-03-11T04:50:48;0.45;;;0.30;;
40471;SDS011;26174;42.908;23.800;2023-03-11T04:53:14;0.20;;;0.20;;
40471;SDS011;26174;42.908;23.800;2023-03-11T04:55:40;0.15;;;0.15;;
40471;SDS011;26174;42.908;23.800;2023-03-11T04:58:05;0.10;;;0.10;;
40471;SDS011;26174;42.908;23.800;2023-03-11T05:00:31;0.00;;;0.00;;
40471;SDS011;26174;42.908;23.800;2023-03-11T05:02:56;0.00;;;0.00;;
40471;SDS011;26174;42.908;23.800;2023-03-11T05:05:22;0.85;;;0.28;;
40471;SDS011;26174;42.908;23.800;2023-03-11T05:07:47;0.10;;;0.10;;
40471;SDS011;26174;42.908;23.800;2023-03-11T05:10:13;0.85;;;0.45;;
40471;SDS011;26174;42.908;23.800;2023-03-11T05:12:39;0.13;;;0.13;;
40471;SDS011;26174;42.908;23.800;2023-03-11T05:15:04;0.20;;;0.20;;
40471;SDS011;26174;42.908;23.800;2023-03-11T05:17:33;0.13;;;0.13;;
40471;SDS011;26174;42.908;23.800;2023-03-11T05:19:58;0.10;;;0.10;;
40471;SDS011;26174;42.908;23.800;2023-03-11T05:22:24;0.10;;;0.10;;
40471;SDS011;26174;42.908;23.800;2023-03-11T05:24:50;0.32;;;0.32;;
40471;SDS011;26174;42.908;23.800;2023-03-11T05:27:15;1.05;;;0.22;;
40471;SDS011;26174;42.908;23.800;2023-03-11T05:29:45;0.03;;;0.03;;
40471;SDS011;26174;42.908;23.800;2023-03-11T05:32:11;0.93;;;0.40;;
40471;SDS011;26174;42.908;23.800;2023-03-11T05:34:37;0.05;;;0.05;;
40471;SDS011;26174;42.908;23.800;2023-03-11T05:37:02;0.10;;;0.10;;
40471;SDS011;26174;42.908;23.800;2023-03-11T05:39:28;0.98;;;0.32;;
40471;SDS011;26174;42.908;23.800;2023-03-11T05:41:53;0.32;;;0.20;;
40471;SDS011;26174;42.908;23.800;2023-03-11T05:44:21;1.77;;;0.75;;
40471;SDS011;26174;42.908;23.800;2023-03-11T05:46:46;0.22;;;0.22;;
40471;SDS011;26174;42.908;23.800;2023-03-11T05:49:12;0.40;;;0.10;;
40471;SDS011;26174;42.908;23.800;2023-03-11T05:51:37;0.43;;;0.43;;
40471;SDS011;26174;42.908;23.800;2023-03-11T05:54:04;0.00;;;0.00;;
40471;SDS011;26174;42.908;23.800;2023-03-11T05:56:36;0.22;;;0.22;;
40471;SDS011;26174;42.908;23.800;2023-03-11T05:59:02;0.00;;;0.00;;
40471;SDS011;26174;42.908;23.800;2023-03-11T06:01:30;0.00;;;0.00;;
40471;SDS011;26174;42.908;23.800;2023-03-11T06:03:59;0.20;;;0.20;;
40471;SDS011;26174;42.908;23.800;2023-03-11T06:06:24;1.10;;;0.95;;
40471;SDS011;26174;42.908;23.800;2023-03-11T06:08:52;1.65;;;0.95;;
40471;SDS011;26174;42.908;23.800;2023-03-11T06:11:18;4.70;;;1.70;;
40471;SDS011;26174;42.908;23.800;2023-03-11T06:13:44;2.20;;;1.52;;
40471;SDS011;26174;42.908;23.800;2023-03-11T06:16:09;1.92;;;1.17;;
40471;SDS011;26174;42.908;23.800;2023-03-11T06:18:35;0.57;;;0.57;;
40471;SDS011;26174;42.908;23.800;2023-03-11T06:21:01;0.63;;;0.63;;
40471;SDS011;26174;42.908;23.800;2023-03-11T06:23:27;0.52;;;0.40;;
40471;SDS011;26174;42.908;23.800;2023-03-11T06:25:57;0.55;;;0.17;;
40471;SDS011;26174;42.908;23.800;2023-03-11T06:28:28;1.75;;;0.82;;
40471;SDS011;26174;42.908;23.800;2023-03-11T06:30:54;6.03;;;2.22;;
40471;SDS011;26174;42.908;23.800;2023-03-11T06:33:25;1.40;;;0.55;;
40471;SDS011;26174;42.908;23.800;2023-03-11T06:35:57;5.00;;;1.70;;
40471;SDS011;26174;42.908;23.800;2023-03-11T06:38:24;1.70;;;0.90;;
40471;SDS011;26174;42.908;23.800;2023-03-11T06:40:49;0.47;;;0.47;;
40471;SDS011;26174;42.908;23.800;2023-03-11T06:43:15;0.20;;;0.20;;
40471;SDS011;26174;42.908;23.800;2023-03-11T06:45:41;0.00;;;0.00;;
40471;SDS011;26174;42.908;23.800;2023-03-11T06:48:06;0.47;;;0.30;;
40471;SDS011;26174;42.908;23.800;2023-03-11T06:50:32;0.10;;;0.10;;
40471;SDS011;26174;42.908;23.800;2023-03-11T06:52:57;0.08;;;0.08;;
40471;SDS011;26174;42.908;23.800;2023-03-11T06:55:23;3.72;;;2.75;;
40471;SDS011;26174;42.908;23.800;2023-03-11T06:57:48;1.88;;;0.98;;
40471;SDS011;26174;42.908;23.800;2023-03-11T07:00:14;2.00;;;0.95;;
40471;SDS011;26174;42.908;23.800;2023-03-11T07:02:41;0.40;;;0.40;;
40471;SDS011;26174;42.908;23.800;2023-03-11T07:05:07;2.00;;;1.27;;
40471;SDS011;26174;42.908;23.800;2023-03-11T07:07:33;0.55;;;0.50;;
40471;SDS011;26174;42.908;23.800;2023-03-11T07:09:59;0.60;;;0.50;;
40471;SDS011;26174;42.908;23.800;2023-03-11T07:12:27;0.88;;;0.45;;
40471;SDS011;26174;42.908;23.800;2023-03-11T07:14:54;2.03;;;1.00;;
40471;SDS011;26174;42.908;23.800;2023-03-11T07:17:20;0.60;;;0.50;;
40471;SDS011;26174;42.908;23.800;2023-03-11T07:19:46;0.52;;;0.25;;
40471;SDS011;26174;42.908;23.800;2023-03-11T07:22:11;0.52;;;0.10;;
40471;SDS011;26174;42.908;23.800;2023-03-11T07:24:37;0.00;;;0.00;;
40471;SDS011;26174;42.908;23.800;2023-03-11T07:27:02;0.25;;;0.25;;
40471;SDS011;26174;42.908;23.800;2023-03-11T07:29:28;0.00;;;0.00;;
40471;SDS011;26174;42.908;23.800;2023-03-11T07:31:53;0.13;;;0.13;;
40471;SDS011;26174;42.908;23.800;2023-03-11T07:34:19;0.10;;;0.10;;
40471;SDS011;26174;42.908;23.800;2023-03-11T07:36:44;0.40;;;0.40;;
40471;SDS011;26174;42.908;23.800;2023-03-11T07:39:14;0.10;;;0.10;;
40471;SDS011;26174;42.908;23.800;2023-03-11T07:41:42;0.10;;;0.10;;
40471;SDS011;26174;42.908;23.800;2023-03-11T07:44:09;0.63;;;0.10;;
40471;SDS011;26174;42.908;23.800;2023-03-11T07:46:36;1.17;;;0.65;;
40471;SDS011;26174;42.908;23.800;2023-03-11T07:49:01;0.15;;;0.15;;
40471;SDS011;26174;42.908;23.800;2023-03-11T07:51:29;0.10;;;0.10;;
40471;SDS011;26174;42.908;23.800;2023-03-11T07:53:56;0.32;;;0.32;;
40471;SDS011;26174;42.908;23.800;2023-03-11T07:56:25;1.55;;;1.08;;
40471;SDS011;26174;42.908;23.800;2023-03-11T07:58:53;0.10;;;0.10;;
40471;SDS011;26174;42.908;23.800;2023-03-11T08:01:20;1.02;;;0.75;;
40471;SDS011;26174;42.908;23.800;2023-03-11T08:03:48;0.40;;;0.22;;
40471;SDS011;26174;42.908;23.800;2023-03-11T08:06:16;0.45;;;0.30;;
40471;SDS011;26174;42.908;23.800;2023-03-11T08:08:46;1.15;;;0.57;;
40471;SDS011;26174;42.908;23.800;2023-03-11T08:11:12;2.80;;;1.33;;
40471;SDS011;26174;42.908;23.800;2023-03-11T08:13:39;1.13;;;1.02;;
40471;SDS011;26174;42.908;23.800;2023-03-11T08:16:05;0.70;;;0.52;;
40471;SDS011;26174;42.908;23.800;2023-03-11T08:18:32;0.30;;;0.30;;
40471;SDS011;26174;42.908;23.800;2023-03-11T08:20:58;0.32;;;0.30;;
40471;SDS011;26174;42.908;23.800;2023-03-11T08:23:23;0.00;;;0.00;;
40471;SDS011;26174;42.908;23.800;2023-03-11T08:25:49;0.10;;;0.10;;
40471;SDS011;26174;42.908;23.800;2023-03-11T08:28:15;0.70;;;0.70;;
40471;SDS011;26174;42.908;23.800;2023-03-11T08:30:40;1.55;;;0.85;;
40471;SDS011;26174;42.908;23.800;2023-03-11T08:33:06;0.00;;;0.00;;
40471;SDS011;26174;42.908;23.800;2023-03-11T08:35:31;0.30;;;0.20;;
40471;SDS011;26174;42.908;23.800;2023-03-11T08:37:57;0.00;;;0.00;;
40471;SDS011;26174;42.908;23.800;2023-03-11T08:40:23;0.30;;;0.15;;
40471;SDS011;26174;42.908;23.800;2023-03-11T08:42:48;0.45;;;0.45;;
40471;SDS011;26174;42.908;23.800;2023-03-11T08:45:14;0.20;;;0.20;;
40471;SDS011;26174;42.908;23.800;2023-03-11T08:47:40;0.10;;;0.10;;
40471;SDS011;26174;42.908;23.800;2023-03-11T08:50:07;0.90;;;0.88;;
40471;SDS011;26174;42.908;23.800;2023-03-11T08:52:35;0.85;;;0.73;;
40471;SDS011;26174;42.908;23.800;2023-03-11T08:55:01;0.10;;;0.10;;
40471;SDS011;26174;42.908;23.800;2023-03-11T08:57:30;0.22;;;0.13;;
40471;SDS011;26174;42.908;23.800;2023-03-11T08:59:56;0.15;;;0.15;;
40471;SDS011;26174;42.908;23.800;2023-03-11T09:02:25;0.00;;;0.00;;
40471;SDS011;26174;42.908;23.800;2023-03-11T09:04:51;0.28;;;0.28;;
40471;SDS011;26174;42.908;23.800;2023-03-11T09:07:17;0.00;;;0.00;;
40471;SDS011;26174;42.908;23.800;2023-03-11T09:09:42;0.30;;;0.25;;
40471;SDS011;26174;42.908;23.800;2023-03-11T09:12:08;0.00;;;0.00;;
40471;SDS011;26174;42.908;23.800;2023-03-11T09:14:38;6.40;;;0.63;;
40471;SDS011;26174;42.908;23.800;2023-03-11T09:17:04;3.10;;;1.85;;
40471;SDS011;26174;42.908;23.800;2023-03-11T09:19:30;4.40;;;1.27;;
40471;SDS011;26174;42.908;23.800;2023-03-11T09:21:58;7.10;;;1.80;;
40471;SDS011;26174;42.908;23.800;2023-03-11T09:24:24;3.28;;;2.00;;
40471;SDS011;26174;42.908;23.800;2023-03-11T09:26:50;2.13;;;1.10;;
40471;SDS011;26174;42.908;23.800;2023-03-11T09:29:15;2.75;;;1.40;;
40471;SDS011;26174;42.908;23.800;2023-03-11T09:31:41;3.35;;;1.40;;
40471;SDS011;26174;42.908;23.800;2023-03-11T09:34:06;5.10;;;2.75;;
40471;SDS011;26174;42.908;23.800;2023-03-11T09:36:32;4.80;;;1.63;;
40471;SDS011;26174;42.908;23.800;2023-03-11T09:38:59;5.97;;;3.63;;
40471;SDS011;26174;42.908;23.800;2023-03-11T09:41:27;2.50;;;1.20;;
40471;SDS011;26174;42.908;23.800;2023-03-11T09:44:01;0.95;;;0.90;;
40471;SDS011;26174;42.908;23.800;2023-03-11T09:52:26;2.28;;;1.25;;
40471;SDS011;26174;42.908;23.800;2023-03-11T09:58:13;3.92;;;1.67;;
40471;SDS011;26174;42.908;23.800;2023-03-11T10:00:42;3.30;;;1.20;;
40471;SDS011;26174;42.908;23.800;2023-03-11T10:03:28;3.83;;;1.42;;
40471;SDS011;26174;42.908;23.800;2023-03-11T10:08:48;7.22;;;1.85;;
40471;SDS011;26174;42.908;23.800;2023-03-11T10:14:05;3.33;;;2.20;;
40471;SDS011;26174;42.908;23.800;2023-03-11T10:16:48;9.38;;;5.38;;
40471;SDS011;26174;42.908;23.800;2023-03-11T10:19:28;13.43;;;6.50;;
40471;SDS011;26174;42.908;23.800;2023-03-11T10:22:05;6.97;;;2.53;;
40471;SDS011;26174;42.908;23.800;2023-03-11T10:27:48;2.92;;;1.60;;
40471;SDS011;26174;42.908;23.800;2023-03-11T10:30:28;2.25;;;1.40;;
40471;SDS011;26174;42.908;23.800;2023-03-11T10:33:02;4.28;;;1.20;;
40471;SDS011;26174;42.908;23.800;2023-03-11T10:35:54;2.05;;;1.27;;
40471;SDS011;26174;42.908;23.800;2023-03-11T10:41:02;1.95;;;1.00;;
40471;SDS011;26174;42.908;23.800;2023-03-11T10:43:32;6.70;;;4.78;;
40471;SDS011;26174;42.908;23.800;2023-03-11T10:45:59;10.38;;;5.75;;
40471;SDS011;26174;42.908;23.800;2023-03-11T10:48:28;5.70;;;2.28;;
40471;SDS011;26174;42.908;23.800;2023-03-11T10:50:56;4.05;;;1.63;;
40471;SDS011;26174;42.908;23.800;2023-03-11T10:53:46;8.15;;;5.18;;
40471;SDS011;26174;42.908;23.800;2023-03-11T10:56:49;2.10;;;1.40;;
40471;SDS011;26174;42.908;23.800;2023-03-11T10:59:50;4.85;;;1.67;;
40471;SDS011;26174;42.908;23.800;2023-03-11T11:05:29;5.00;;;1.60;;
40471;SDS011;26174;42.908;23.800;2023-03-11T11:08:16;2.30;;;1.60;;
40471;SDS011;26174;42.908;23.800;2023-03-11T11:10:50;2.03;;;0.95;;
40471;SDS011;26174;42.908;23.800;2023-03-11T11:13:21;4.13;;;1.30;;
40471;SDS011;26174;42.908;23.800;2023-03-11T11:23:29;4.07;;;0.70;;
40471;SDS011;26174;42.908;23.800;2023-03-11T11:26:04;1.15;;;1.05;;
40471;SDS011;26174;42.908;23.800;2023-03-11T11:28:33;6.65;;;2.05;;
40471;SDS011;26174;42.908;23.800;2023-03-11T11:31:00;3.08;;;1.55;;
40471;SDS011;26174;42.908;23.800;2023-03-11T11:33:31;1.20;;;1.10;;
40471;SDS011;26174;42.908;23.800;2023-03-11T11:36:11;3.47;;;2.35;;
40471;SDS011;26174;42.908;23.800;2023-03-11T11:38:40;4.18;;;1.42;;
40471;SDS011;26174;42.908;23.800;2023-03-11T11:41:08;4.05;;;1.95;;
40471;SDS011;26174;42.908;23.800;2023-03-11T11:43:40;2.30;;;1.33;;
40471;SDS011;26174;42.908;23.800;2023-03-11T11:46:11;3.13;;;1.70;;
40471;SDS011;26174;42.908;23.800;2023-03-11T11:48:46;4.15;;;1.83;;
40471;SDS011;26174;42.908;23.800;2023-03-11T11:51:34;3.72;;;1.90;;
40471;SDS011;26174;42.908;23.800;2023-03-11T11:56:48;1.60;;;1.23;;
40471;SDS011;26174;42.908;23.800;2023-03-11T11:59:14;2.75;;;1.60;;
40471;SDS011;26174;42.908;23.800;2023-03-11T12:04:37;9.88;;;5.13;;
40471;SDS011;26174;42.908;23.800;2023-03-11T12:07:20;2.05;;;1.20;;
40471;SDS011;26174;42.908;23.800;2023-03-11T12:13:03;2.60;;;1.10;;
40471;SDS011;26174;42.908;23.800;2023-03-11T12:15:38;3.85;;;1.40;;
40471;SDS011;26174;42.908;23.800;2023-03-11T12:18:09;2.95;;;1.60;;
40471;SDS011;26174;42.908;23.800;2023-03-11T12:20:41;1.27;;;1.15;;
40471;SDS011;26174;42.908;23.800;2023-03-11T12:26:03;1.63;;;1.30;;
40471;SDS011;26174;42.908;23.800;2023-03-11T12:28:43;3.42;;;1.40;;
40471;SDS011;26174;42.908;23.800;2023-03-11T12:31:21;1.58;;;1.40;;
40471;SDS011;26174;42.908;23.800;2023-03-11T12:33:49;3.30;;;1.92;;
40471;SDS011;26174;42.908;23.800;2023-03-11T12:38:47;2.50;;;1.50;;
40471;SDS011;26174;42.908;23.800;2023-03-11T12:48:47;5.85;;;2.50;;
40471;SDS011;26174;42.908;23.800;2023-03-11T12:53:51;3.40;;;1.92;;
40471;SDS011;26174;42.908;23.800;2023-03-11T12:59:08;4.88;;;2.33;;
40471;SDS011;26174;42.908;23.800;2023-03-11T13:07:45;6.40;;;2.85;;
40471;SDS011;26174;42.908;23.800;2023-03-11T13:18:39;4.97;;;1.73;;
40471;SDS011;26174;42.908;23.800;2023-03-11T13:21:39;2.97;;;1.60;;
40471;SDS011;26174;42.908;23.800;2023-03-11T13:24:47;3.03;;;1.80;;
40471;SDS011;26174;42.908;23.800;2023-03-11T13:35:10;6.35;;;3.15;;
40471;SDS011;26174;42.908;23.800;2023-03-11T13:40:38;6.10;;;2.70;;
40471;SDS011;26174;42.908;23.800;2023-03-11T13:43:16;9.07;;;3.33;;
40471;SDS011;26174;42.908;23.800;2023-03-11T13:45:44;3.40;;;2.40;;
40471;SDS011;26174;42.908;23.800;2023-03-11T13:48:16;11.85;;;6.00;;
40471;SDS011;26174;42.908;23.800;2023-03-11T13:50:50;11.25;;;5.30;;
40471;SDS011;26174;42.908;23.800;2023-03-11T13:56:03;6.97;;;4.20;;
40471;SDS011;26174;42.908;23.800;2023-03-11T13:58:29;6.03;;;2.08;;
40471;SDS011;26174;42.908;23.800;2023-03-11T14:00:56;2.35;;;1.92;;
40471;SDS011;26174;42.908;23.800;2023-03-11T14:03:23;3.90;;;1.90;;
40471;SDS011;26174;42.908;23.800;2023-03-11T14:06:12;2.75;;;1.85;;
40471;SDS011;26174;42.908;23.800;2023-03-11T14:08:54;3.70;;;2.30;;
40471;SDS011;26174;42.908;23.800;2023-03-11T14:11:24;3.72;;;2.10;;
40471;SDS011;26174;42.908;23.800;2023-03-11T14:13:53;5.13;;;2.80;;
40471;SDS011;26174;42.908;23.800;2023-03-11T14:16:32;4.90;;;2.45;;
40471;SDS011;26174;42.908;23.800;2023-03-11T14:19:14;5.43;;;2.13;;
40471;SDS011;26174;42.908;23.800;2023-03-11T14:21:42;5.05;;;2.67;;
40471;SDS011;26174;42.908;23.800;2023-03-11T14:24:14;8.07;;;3.35;;
40471;SDS011;26174;42.908;23.800;2023-03-11T14:26:41;22.52;;;11.52;;
40471;SDS011;26174;42.908;23.800;2023-03-11T14:29:09;9.02;;;4.13;;
40471;SDS011;26174;42.908;23.800;2023-03-11T14:31:37;20.27;;;6.18;;
40471;SDS011;26174;42.908;23.800;2023-03-11T14:34:21;4.97;;;2.42;;
40471;SDS011;26174;42.908;23.800;2023-03-11T14:36:50;10.77;;;3.17;;
40471;SDS011;26174;42.908;23.800;2023-03-11T14:41:50;9.23;;;3.57;;
40471;SDS011;26174;42.908;23.800;2023-03-11T14:44:21;3.73;;;2.10;;
40471;SDS011;26174;42.908;23.800;2023-03-11T14:46:48;5.65;;;2.35;;
40471;SDS011;26174;42.908;23.800;2023-03-11T14:49:19;3.05;;;2.00;;
40471;SDS011;26174;42.908;23.800;2023-03-11T14:51:45;3.30;;;2.15;;
40471;SDS011;26174;42.908;23.800;2023-03-11T14:54:20;9.63;;;2.55;;
40471;SDS011;26174;42.908;23.800;2023-03-11T14:56:50;8.00;;;4.00;;
40471;SDS011;26174;42.908;23.800;2023-03-11T14:59:28;4.65;;;2.28;;
40471;SDS011;26174;42.908;23.800;2023-03-11T15:01:57;5.28;;;2.45;;
40471;SDS011;26174;42.908;23.800;2023-03-11T15:04:28;4.75;;;2.70;;
40471;SDS011;26174;42.908;23.800;2023-03-11T15:06:56;6.90;;;3.80;;
40471;SDS011;26174;42.908;23.800;2023-03-11T15:09:23;12.85;;;4.07;;
40471;SDS011;26174;42.908;23.800;2023-03-11T15:11:50;6.25;;;3.95;;
40471;SDS011;26174;42.908;23.800;2023-03-11T15:14:26;7.90;;;5.13;;
40471;SDS011;26174;42.908;23.800;2023-03-11T15:17:22;11.50;;;6.38;;
40471;SDS011;26174;42.908;23.800;2023-03-11T15:19:45;13.30;;;6.72;;
40471;SDS011;26174;42.908;23.800;2023-03-11T15:24:56;12.40;;;7.95;;
40471;SDS011;26174;42.908;23.800;2023-03-11T15:27:32;15.00;;;8.80;;
40471;SDS011;26174;42.908;23.800;2023-03-11T15:29:59;9.95;;;6.63;;
40471;SDS011;26174;42.908;23.800;2023-03-11T15:37:27;14.93;;;5.57;;
40471;SDS011;26174;42.908;23.800;2023-03-11T15:39:55;10.82;;;5.30;;
40471;SDS011;26174;42.908;23.800;2023-03-11T15:42:22;9.75;;;4.78;;
40471;SDS011;26174;42.908;23.800;2023-03-11T15:47:22;7.30;;;4.55;;
40471;SDS011;26174;42.908;23.800;2023-03-11T15:49:48;16.08;;;9.48;;
40471;SDS011;26174;42.908;23.800;2023-03-11T15:52:14;11.57;;;5.53;;
40471;SDS011;26174;42.908;23.800;2023-03-11T15:54:40;10.40;;;4.15;;
40471;SDS011;26174;42.908;23.800;2023-03-11T15:57:11;9.10;;;4.72;;
40471;SDS011;26174;42.908;23.800;2023-03-11T15:59:45;8.15;;;4.88;;
40471;SDS011;26174;42.908;23.800;2023-03-11T16:05:05;8.43;;;4.07;;
40471;SDS011;26174;42.908;23.800;2023-03-11T16:07:36;6.05;;;3.85;;
40471;SDS011;26174;42.908;23.800;2023-03-11T16:10:02;23.73;;;11.50;;
40471;SDS011;26174;42.908;23.800;2023-03-11T16:12:28;31.05;;;13.82;;
40471;SDS011;26174;42.908;23.800;2023-03-11T16:14:53;2.75;;;1.88;;
40471;SDS011;26174;42.908;23.800;2023-03-11T16:17:19;7.13;;;1.95;;
40471;SDS011;26174;42.908;23.800;2023-03-11T16:19:47;8.30;;;4.07;;
40471;SDS011;26174;42.908;23.800;2023-03-11T16:22:20;5.25;;;1.77;;
40471;SDS011;26174;42.908;23.800;2023-03-11T16:24:59;8.88;;;3.20;;
40471;SDS011;26174;42.908;23.800;2023-03-11T16:27:26;8.60;;;4.45;;
40471;SDS011;26174;42.908;23.800;2023-03-11T16:29:52;3.55;;;2.20;;
40471;SDS011;26174;42.908;23.800;2023-03-11T16:32:17;2.83;;;1.58;;
40471;SDS011;26174;42.908;23.800;2023-03-11T16:34:43;3.38;;;2.00;;